Time;durP1;ratioP1;P1;durP2;ratioP2;P2;SDS_P1;SDS_P2;PMS_P1;PMS_P2;Temp;Humidity;BMP_temperature;BMP_pressure;BME280_temperature;BME280_humidity;BME280_pressure;Samples;Min_cycle;Max_cycle;Signal;HPM_P1;HPM_P2
2023/06/16 00:00:11;;;;;;;4.57;3.77;;;;;;;;;;4919092;29;20181;-71
2023/06/16 00:03:16;;;;;;;4.60;4.03;;;;;;;;;;4919043;29;20185;-71
2023/06/16 00:06:20;;;;;;;4.80;3.80;;;;;;;;;;4929393;29;20629;-71
2023/06/16 00:09:25;;;;;;;5.43;3.77;;;;;;;;;;4918559;29;20201;-71
2023/06/16 00:12:29;;;;;;;10.03;4.40;;;;;;;;;;4918509;29;20561;-71
2023/06/16 00:15:34;;;;;;;4.90;4.30;;;;;;;;;;4918844;29;20675;-71
2023/06/16 00:18:43;;;;;;;4.70;3.97;;;;;;;;;;4917946;29;20189;-71
2023/06/16 00:21:48;;;;;;;4.57;4.13;;;;;;;;;;4918224;29;20225;-71
2023/06/16 00:24:52;;;;;;;5.40;4.10;;;;;;;;;;4918413;29;20624;-71
2023/06/16 00:27:57;;;;;;;6.73;3.87;;;;;;;;;;4928520;29;20189;-71
2023/06/16 00:31:03;;;;;;;4.87;3.83;;;;;;;;;;4918186;29;20240;-71
2023/06/16 00:34:07;;;;;;;5.80;4.10;;;;;;;;;;4917459;29;20180;-71
2023/06/16 00:37:13;;;;;;;4.60;3.93;;;;;;;;;;4918143;29;20542;-71
2023/06/16 00:40:18;;;;;;;5.63;3.83;;;;;;;;;;4917158;29;20541;-71
2023/06/16 00:43:21;;;;;;;8.23;4.20;;;;;;;;;;4917451;29;20181;-71
2023/06/16 00:46:29;;;;;;;4.17;3.77;;;;;;;;;;4918235;29;20521;-71
2023/06/16 00:49:33;;;;;;;5.30;4.33;;;;;;;;;;4928256;29;20193;-71
2023/06/16 00:52:38;;;;;;;5.33;4.23;;;;;;;;;;4928329;29;20233;-71
2023/06/16 00:55:43;;;;;;;5.20;4.40;;;;;;;;;;4917308;29;20189;-73
2023/06/16 00:58:52;;;;;;;4.60;4.10;;;;;;;;;;4927906;29;20185;-71
2023/06/16 01:01:57;;;;;;;4.73;4.30;;;;;;;;;;4927683;29;20565;-71
2023/06/16 01:05:02;;;;;;;6.00;4.53;;;;;;;;;;4927676;29;20204;-71
2023/06/16 01:08:11;;;;;;;5.00;4.17;;;;;;;;;;4916275;29;20529;-71
2023/06/16 01:11:28;;;;;;;6.00;4.63;;;;;;;;;;4917439;29;20224;-71
2023/06/16 01:15:10;;;;;;;8.43;4.50;;;;;;;;;;4916863;29;20189;-71
2023/06/16 01:18:22;;;;;;;7.20;4.63;;;;;;;;;;4916682;29;20185;-71
2023/06/16 01:21:43;;;;;;;5.20;4.33;;;;;;;;;;4916552;29;20225;-71
2023/06/16 01:24:47;;;;;;;4.97;4.43;;;;;;;;;;4917632;29;20185;-71
2023/06/16 01:27:53;;;;;;;4.80;4.30;;;;;;;;;;4916702;29;20180;-71
2023/06/16 01:31:00;;;;;;;5.13;4.63;;;;;;;;;;4917395;29;20228;-71
2023/06/16 01:34:06;;;;;;;4.53;4.13;;;;;;;;;;4927799;29;20181;-74
2023/06/16 01:37:10;;;;;;;5.53;5.03;;;;;;;;;;4917420;29;20184;-71
2023/06/16 01:40:15;;;;;;;7.50;4.90;;;;;;;;;;4916250;29;20530;-71
2023/06/16 01:43:21;;;;;;;4.83;4.33;;;;;;;;;;4917020;29;20196;-71
2023/06/16 01:46:26;;;;;;;5.37;4.80;;;;;;;;;;4916560;29;20185;-71
2023/06/16 01:49:32;;;;;;;5.43;4.77;;;;;;;;;;4917212;29;20189;-71
2023/06/16 01:52:36;;;;;;;5.83;4.77;;;;;;;;;;4917923;29;20228;-73
2023/06/16 01:55:51;;;;;;;7.07;5.07;;;;;;;;;;4916441;29;20185;-71
2023/06/16 01:58:55;;;;;;;5.17;4.67;;;;;;;;;;4916267;29;20185;-71
2023/06/16 02:02:05;;;;;;;7.00;4.70;;;;;;;;;;4916030;29;20221;-71
2023/06/16 02:05:11;;;;;;;6.10;5.07;;;;;;;;;;4917115;29;20178;-71
2023/06/16 02:08:21;;;;;;;5.33;4.80;;;;;;;;;;4917157;29;20517;-71
2023/06/16 02:11:25;;;;;;;6.77;4.60;;;;;;;;;;4915818;29;20224;-71
2023/06/16 02:14:31;;;;;;;5.50;4.90;;;;;;;;;;4916626;29;20201;-72
2023/06/16 02:17:35;;;;;;;5.73;4.73;;;;;;;;;;4916112;29;20204;-71
2023/06/16 02:20:40;;;;;;;5.60;5.00;;;;;;;;;;4930512;29;20216;-74
2023/06/16 02:23:45;;;;;;;6.93;5.00;;;;;;;;;;4919522;29;20580;-71
2023/06/16 02:26:49;;;;;;;5.20;4.70;;;;;;;;;;4919557;29;20205;-72
2023/06/16 02:29:53;;;;;;;5.77;5.13;;;;;;;;;;4920279;29;20196;-71
2023/06/16 02:32:58;;;;;;;5.43;4.93;;;;;;;;;;4919610;29;20221;-73
2023/06/16 02:36:02;;;;;;;6.67;5.20;;;;;;;;;;4930363;29;20185;-74
2023/06/16 02:39:07;;;;;;;6.07;5.20;;;;;;;;;;4919594;29;20525;-72
2023/06/16 02:42:11;;;;;;;5.93;5.33;;;;;;;;;;4930145;29;20220;-72
2023/06/16 02:45:15;;;;;;;8.00;5.37;;;;;;;;;;4919241;29;20204;-73
2023/06/16 02:48:19;;;;;;;5.67;4.53;;;;;;;;;;4930067;29;20200;-72
2023/06/16 02:51:25;;;;;;;6.17;5.33;;;;;;;;;;4919142;29;20224;-72
2023/06/16 02:54:29;;;;;;;5.33;4.77;;;;;;;;;;4920620;29;20193;-73
2023/06/16 02:57:36;;;;;;;7.43;4.87;;;;;;;;;;4919468;29;20181;-73
2023/06/16 03:00:40;;;;;;;8.83;5.20;;;;;;;;;;4919057;29;20216;-73
2023/06/16 03:03:58;;;;;;;6.93;5.30;;;;;;;;;;4919061;29;20185;-73
2023/06/16 03:07:34;;;;;;;6.47;5.10;;;;;;;;;;4920066;29;20621;-73
2023/06/16 03:10:40;;;;;;;5.97;4.90;;;;;;;;;;4919860;29;20558;-73
2023/06/16 03:13:48;;;;;;;6.90;5.27;;;;;;;;;;4918981;29;20204;-73
2023/06/16 03:16:55;;;;;;;7.27;5.47;;;;;;;;;;4919118;29;20522;-73
2023/06/16 03:20:01;;;;;;;5.10;4.60;;;;;;;;;;4918858;29;20645;-72
2023/06/16 03:23:18;;;;;;;7.77;4.87;;;;;;;;;;4918633;29;20205;-73
2023/06/16 03:26:24;;;;;;;8.10;5.47;;;;;;;;;;4918918;29;20200;-73
2023/06/16 03:29:42;;;;;;;5.97;5.30;;;;;;;;;;4917802;29;20526;-73
2023/06/16 03:32:46;;;;;;;6.60;5.17;;;;;;;;;;4919296;29;20676;-73
2023/06/16 03:35:50;;;;;;;5.50;5.00;;;;;;;;;;4907673;29;20192;-73
2023/06/16 03:39:08;;;;;;;5.93;5.33;;;;;;;;;;4929845;29;20189;-73
2023/06/16 03:42:14;;;;;;;6.70;5.30;;;;;;;;;;4929500;29;20220;-73
2023/06/16 03:45:19;;;;;;;6.23;5.10;;;;;;;;;;4918586;29;20188;-73
2023/06/16 03:48:25;;;;;;;5.90;5.30;;;;;;;;;;4929228;29;20661;-73
2023/06/16 03:51:34;;;;;;;5.77;4.80;;;;;;;;;;4918267;29;20692;-73
2023/06/16 03:54:38;;;;;;;7.33;5.70;;;;;;;;;;4918092;29;20201;-73
2023/06/16 03:57:42;;;;;;;5.53;4.70;;;;;;;;;;4918104;29;20200;-72
2023/06/16 04:00:46;;;;;;;6.10;5.37;;;;;;;;;;4917969;29;20225;-73
2023/06/16 04:03:52;;;;;;;6.73;5.23;;;;;;;;;;4929173;29;20177;-73
2023/06/16 04:06:57;;;;;;;5.97;5.30;;;;;;;;;;4918275;29;20193;-73
2023/06/16 04:10:02;;;;;;;5.50;4.97;;;;;;;;;;4917924;29;20189;-73
2023/06/16 04:13:06;;;;;;;6.50;5.43;;;;;;;;;;4917731;29;20228;-73
2023/06/16 04:16:14;;;;;;;4.90;4.40;;;;;;;;;;4917710;29;20660;-73
2023/06/16 04:19:19;;;;;;;5.70;5.20;;;;;;;;;;4917906;29;20181;-73
2023/06/16 04:22:24;;;;;;;5.43;4.90;;;;;;;;;;4928534;29;20228;-73
2023/06/16 04:25:32;;;;;;;8.40;4.60;;;;;;;;;;4917561;29;20185;-73
2023/06/16 04:28:38;;;;;;;6.00;5.10;;;;;;;;;;4918027;29;20189;-73
2023/06/16 04:31:43;;;;;;;6.00;5.40;;;;;;;;;;4917496;29;20225;-73
2023/06/16 04:34:49;;;;;;;5.73;5.13;;;;;;;;;;4917536;29;20181;-74
2023/06/16 04:37:56;;;;;;;5.50;5.00;;;;;;;;;;4917347;29;20185;-71
2023/06/16 04:41:01;;;;;;;5.97;5.47;;;;;;;;;;4916994;29;20565;-72
2023/06/16 04:44:07;;;;;;;6.17;5.10;;;;;;;;;;4928159;29;20173;-72
2023/06/16 04:47:12;;;;;;;6.23;5.63;;;;;;;;;;4917446;29;20181;-73
2023/06/16 04:50:17;;;;;;;13.03;5.43;;;;;;;;;;4928166;29;20181;-73
2023/06/16 04:53:22;;;;;;;8.53;5.23;;;;;;;;;;4917074;29;20233;-73
2023/06/16 04:56:26;;;;;;;7.63;5.43;;;;;;;;;;4917266;29;20185;-73
2023/06/16 04:59:31;;;;;;;6.43;5.80;;;;;;;;;;4917512;29;20180;-73
2023/06/16 05:02:37;;;;;;;5.67;5.03;;;;;;;;;;4916855;29;20217;-74
2023/06/16 05:05:41;;;;;;;9.87;5.30;;;;;;;;;;4927799;29;20185;-74
2023/06/16 05:08:45;;;;;;;6.50;5.73;;;;;;;;;;4917120;29;20181;-72
2023/06/16 05:11:49;;;;;;;7.97;5.03;;;;;;;;;;4927558;29;20216;-74
2023/06/16 05:14:54;;;;;;;9.00;5.67;;;;;;;;;;4916843;29;20181;-73
2023/06/16 05:17:59;;;;;;;10.40;6.17;;;;;;;;;;4927844;29;20181;-73
2023/06/16 05:21:03;;;;;;;7.07;6.10;;;;;;;;;;4916455;29;20227;-73
2023/06/16 05:24:09;;;;;;;11.77;6.30;;;;;;;;;;4916814;29;20177;-73
2023/06/16 05:27:13;;;;;;;7.00;6.00;;;;;;;;;;4916758;29;20181;-72
2023/06/16 05:30:17;;;;;;;7.53;5.63;;;;;;;;;;4917133;29;20185;-72
2023/06/16 05:33:22;;;;;;;6.90;5.60;;;;;;;;;;4916601;29;20212;-73
2023/06/16 05:36:26;;;;;;;12.07;6.93;;;;;;;;;;4916302;29;20189;-70
2023/06/16 05:39:32;;;;;;;7.57;5.90;;;;;;;;;;4916554;29;20204;-72
2023/06/16 05:42:36;;;;;;;6.90;4.93;;;;;;;;;;4914534;29;20236;-75
2023/06/16 05:45:40;;;;;;;5.67;4.80;;;;;;;;;;4898317;29;20196;-72
2023/06/16 05:48:44;;;;;;;7.07;5.40;;;;;;;;;;4917016;29;20185;-72
2023/06/16 05:51:51;;;;;;;6.50;5.67;;;;;;;;;;4916124;29;20568;-71
2023/06/16 05:54:57;;;;;;;7.03;6.00;;;;;;;;;;4916302;29;20180;-72
2023/06/16 05:58:10;;;;;;;9.47;5.80;;;;;;;;;;4916329;29;20184;-71
2023/06/16 06:01:14;;;;;;;6.30;5.63;;;;;;;;;;4916058;29;20224;-72
2023/06/16 06:04:32;;;;;;;13.07;5.50;;;;;;;;;;4917084;29;20173;-71
2023/06/16 06:07:40;;;;;;;9.37;5.27;;;;;;;;;;4916105;29;20193;-71
2023/06/16 06:10:44;;;;;;;7.57;5.63;;;;;;;;;;4905546;29;20217;-71
2023/06/16 06:13:48;;;;;;;11.93;5.43;;;;;;;;;;4916582;29;20216;-72
2023/06/16 06:16:52;;;;;;;9.97;5.27;;;;;;;;;;4916917;29;20196;-71
2023/06/16 06:19:58;;;;;;;7.37;5.20;;;;;;;;;;4916985;29;20185;-71
2023/06/16 06:23:02;;;;;;;5.90;4.90;;;;;;;;;;4915910;29;20209;-71
2023/06/16 06:26:07;;;;;;;7.13;5.33;;;;;;;;;;4916141;29;20200;-71
2023/06/16 06:29:11;;;;;;;6.77;5.60;;;;;;;;;;4916166;29;20181;-71
2023/06/16 06:32:15;;;;;;;6.50;4.97;;;;;;;;;;4915980;29;20212;-72
2023/06/16 06:35:20;;;;;;;5.23;4.63;;;;;;;;;;4915881;29;20177;-71
2023/06/16 06:38:24;;;;;;;5.50;4.50;;;;;;;;;;4915983;29;20185;-71
2023/06/16 06:41:29;;;;;;;5.33;4.20;;;;;;;;;;4916014;29;20221;-71
2023/06/16 06:44:41;;;;;;;5.23;4.60;;;;;;;;;;4904695;29;20205;-71
2023/06/16 06:47:46;;;;;;;10.60;5.57;;;;;;;;;;4906077;29;20617;-72
2023/06/16 06:50:50;;;;;;;7.13;4.27;;;;;;;;;;4915688;29;20711;-71
2023/06/16 06:53:54;;;;;;;6.33;4.80;;;;;;;;;;4916175;29;20213;-71
2023/06/16 06:56:58;;;;;;;5.87;4.60;;;;;;;;;;4916027;29;20219;-71
2023/06/16 07:00:03;;;;;;;6.67;5.03;;;;;;;;;;4916406;29;20185;-71
2023/06/16 07:03:07;;;;;;;5.90;4.73;;;;;;;;;;4916392;29;20177;-71
2023/06/16 07:06:11;;;;;;;6.00;5.40;;;;;;;;;;4919646;29;20549;-71
2023/06/16 07:09:15;;;;;;;6.63;4.93;;;;;;;;;;4919531;29;20189;-71
2023/06/16 07:12:19;;;;;;;7.47;5.40;;;;;;;;;;4918965;29;20572;-71
2023/06/16 07:15:24;;;;;;;6.20;5.00;;;;;;;;;;4918617;29;20197;-71
2023/06/16 07:18:28;;;;;;;7.40;4.67;;;;;;;;;;4919354;29;20201;-71
2023/06/16 07:21:33;;;;;;;7.77;4.57;;;;;;;;;;4919187;29;20220;-72
2023/06/16 07:24:36;;;;;;;8.83;4.47;;;;;;;;;;4918685;29;20181;-71
2023/06/16 07:27:42;;;;;;;8.30;4.43;;;;;;;;;;4919491;29;20177;-71
2023/06/16 07:30:46;;;;;;;4.23;3.63;;;;;;;;;;4929910;29;20216;-72
2023/06/16 07:33:51;;;;;;;6.13;3.20;;;;;;;;;;4919607;29;20661;-71
2023/06/16 07:36:55;;;;;;;6.13;2.93;;;;;;;;;;4907925;29;20180;-71
2023/06/16 07:40:00;;;;;;;5.43;2.97;;;;;;;;;;4918266;29;20201;-71
2023/06/16 07:43:04;;;;;;;3.77;3.37;;;;;;;;;;4918259;29;20202;-71
2023/06/16 07:46:08;;;;;;;4.37;3.30;;;;;;;;;;4900481;29;20649;-71
2023/06/16 07:49:16;;;;;;;5.30;3.80;;;;;;;;;;4900211;29;20180;-71
2023/06/16 07:52:20;;;;;;;3.80;3.40;;;;;;;;;;4899367;29;20222;-70
2023/06/16 07:55:24;;;;;;;4.20;3.80;;;;;;;;;;4900181;29;20184;-70
2023/06/16 07:58:29;;;;;;;3.95;3.55;;;;;;;;;;4900206;29;20638;-71
2023/06/16 08:01:33;;;;;;;4.55;3.60;;;;;;;;;;4899124;29;20226;-71
2023/06/16 08:04:37;;;;;;;4.47;3.30;;;;;;;;;;4899949;29;20178;-70
2023/06/16 08:07:41;;;;;;;9.07;3.78;;;;;;;;;;4910417;29;20180;-71
2023/06/16 08:10:46;;;;;;;6.82;3.60;;;;;;;;;;4899937;29;20224;-71
2023/06/16 08:13:50;;;;;;;4.45;3.45;;;;;;;;;;4905996;29;20232;-70
2023/06/16 08:16:54;;;;;;;4.05;3.65;;;;;;;;;;4918077;29;20188;-72
2023/06/16 08:19:58;;;;;;;4.10;3.00;;;;;;;;;;4918731;29;20520;-71
2023/06/16 08:23:02;;;;;;;5.43;2.83;;;;;;;;;;4918859;29;20547;-71
2023/06/16 08:26:07;;;;;;;4.82;3.28;;;;;;;;;;4918352;29;20675;-71
2023/06/16 08:29:12;;;;;;;5.82;3.70;;;;;;;;;;4918569;29;20187;-71
2023/06/16 08:32:16;;;;;;;5.97;3.72;;;;;;;;;;4917450;29;20225;-71
2023/06/16 08:35:21;;;;;;;5.28;3.67;;;;;;;;;;4918099;29;20215;-71
2023/06/16 08:38:25;;;;;;;4.50;3.70;;;;;;;;;;4918433;29;20190;-71
2023/06/16 08:41:30;;;;;;;4.65;3.47;;;;;;;;;;4917274;29;20218;-71
2023/06/16 08:44:35;;;;;;;3.65;3.03;;;;;;;;;;4917696;29;20207;-71
2023/06/16 08:47:39;;;;;;;12.27;3.38;;;;;;;;;;4918288;29;20185;-71
2023/06/16 08:50:44;;;;;;;8.13;3.40;;;;;;;;;;4917941;29;20745;-71
2023/06/16 08:53:54;;;;;;;9.35;3.53;;;;;;;;;;4916988;29;20217;-70
2023/06/16 08:57:01;;;;;;;3.17;2.80;;;;;;;;;;4918397;29;20175;-70
2023/06/16 09:00:09;;;;;;;5.60;2.95;;;;;;;;;;4917760;29;20193;-71
2023/06/16 09:03:13;;;;;;;3.80;3.00;;;;;;;;;;4917867;29;20192;-70
2023/06/16 09:06:18;;;;;;;7.22;3.08;;;;;;;;;;4917120;29;20184;-70
2023/06/16 09:09:23;;;;;;;8.18;3.15;;;;;;;;;;4917605;29;20186;-71
2023/06/16 09:12:28;;;;;;;6.82;2.75;;;;;;;;;;4916730;29;20223;-71
2023/06/16 09:15:33;;;;;;;2.92;2.63;;;;;;;;;;4927873;29;20210;-71
2023/06/16 09:18:41;;;;;;;5.55;2.92;;;;;;;;;;4917744;29;20183;-71
2023/06/16 09:21:46;;;;;;;4.20;3.22;;;;;;;;;;4927574;29;20220;-71
2023/06/16 09:24:55;;;;;;;4.10;2.90;;;;;;;;;;4927783;29;20182;-71
2023/06/16 09:28:07;;;;;;;6.60;3.00;;;;;;;;;;4916455;29;20201;-71
2023/06/16 09:31:12;;;;;;;4.57;2.80;;;;;;;;;;4917199;29;20216;-71
2023/06/16 09:34:17;;;;;;;3.55;3.00;;;;;;;;;;4917402;29;20671;-71
2023/06/16 09:37:21;;;;;;;4.97;3.15;;;;;;;;;;4917578;29;20533;-70
2023/06/16 09:40:27;;;;;;;5.03;3.00;;;;;;;;;;4917342;29;20206;-71
2023/06/16 09:43:32;;;;;;;5.03;3.10;;;;;;;;;;4917108;29;20209;-71
2023/06/16 09:46:36;;;;;;;5.78;3.25;;;;;;;;;;4917299;29;20192;-71
2023/06/16 09:49:40;;;;;;;4.28;2.67;;;;;;;;;;4916973;29;20187;-71
2023/06/16 09:52:47;;;;;;;5.15;3.47;;;;;;;;;;4916947;29;20200;-71
2023/06/16 09:55:53;;;;;;;8.27;3.70;;;;;;;;;;4917353;29;20231;-70
2023/06/16 09:58:58;;;;;;;7.20;3.10;;;;;;;;;;4917030;29;20188;-71
2023/06/16 10:02:05;;;;;;;3.30;2.97;;;;;;;;;;4917091;29;20222;-71
2023/06/16 10:05:10;;;;;;;3.83;3.03;;;;;;;;;;4915613;29;20206;-70
2023/06/16 10:08:17;;;;;;;4.70;3.00;;;;;;;;;;4916736;29;20206;-71
2023/06/16 10:11:22;;;;;;;5.28;2.85;;;;;;;;;;4916623;29;20221;-71
2023/06/16 10:14:28;;;;;;;6.18;2.92;;;;;;;;;;4916657;29;20203;-71
2023/06/16 10:17:32;;;;;;;3.22;2.85;;;;;;;;;;4916157;29;20642;-71
2023/06/16 10:20:37;;;;;;;9.38;3.40;;;;;;;;;;4916522;29;20224;-71
2023/06/16 10:23:42;;;;;;;3.65;3.00;;;;;;;;;;4916464;29;20210;-71
2023/06/16 10:26:47;;;;;;;4.07;3.25;;;;;;;;;;4916865;29;20181;-71
2023/06/16 10:29:51;;;;;;;8.02;3.40;;;;;;;;;;4916797;29;20190;-71
2023/06/16 10:32:57;;;;;;;4.68;3.00;;;;;;;;;;4916817;29;20188;-71
2023/06/16 10:36:02;;;;;;;8.52;3.78;;;;;;;;;;4916436;29;20214;-71
2023/06/16 10:39:08;;;;;;;6.82;3.67;;;;;;;;;;4917519;29;20183;-71
2023/06/16 10:42:13;;;;;;;6.88;3.15;;;;;;;;;;4919303;29;20218;-71
2023/06/16 10:45:31;;;;;;;10.25;3.42;;;;;;;;;;4919513;29;20626;-71
2023/06/16 10:48:56;;;;;;;7.45;3.40;;;;;;;;;;4919990;29;20198;-71
2023/06/16 10:52:02;;;;;;;6.30;3.70;;;;;;;;;;4919851;29;20219;-71
2023/06/16 10:55:31;;;;;;;4.97;3.20;;;;;;;;;;4919805;29;20229;-71
2023/06/16 10:58:36;;;;;;;9.43;6.93;;;;;;;;;;4920337;29;20631;-71
2023/06/16 11:01:46;;;;;;;4.72;3.70;;;;;;;;;;4919848;29;20592;-71
2023/06/16 11:05:08;;;;;;;5.75;3.75;;;;;;;;;;4920136;29;20663;-71
2023/06/16 11:08:14;;;;;;;5.25;3.78;;;;;;;;;;4919267;29;20537;-71
2023/06/16 11:11:18;;;;;;;6.10;4.30;;;;;;;;;;4919971;29;20683;-71
2023/06/16 11:14:23;;;;;;;6.10;3.83;;;;;;;;;;4919646;29;20216;-71
2023/06/16 11:17:28;;;;;;;7.35;3.97;;;;;;;;;;4919934;29;20521;-72
2023/06/16 11:20:34;;;;;;;5.88;4.20;;;;;;;;;;4919478;29;20537;-71
2023/06/16 11:23:38;;;;;;;5.82;4.25;;;;;;;;;;4919434;29;20209;-71
2023/06/16 11:26:42;;;;;;;4.72;3.72;;;;;;;;;;4919130;29;20180;-71
2023/06/16 11:29:47;;;;;;;6.95;4.90;;;;;;;;;;4919493;29;20177;-71
2023/06/16 11:32:52;;;;;;;8.25;3.90;;;;;;;;;;4918802;29;20205;-71
2023/06/16 11:35:59;;;;;;;6.97;4.63;;;;;;;;;;4919257;29;20205;-71
2023/06/16 11:39:11;;;;;;;7.13;4.60;;;;;;;;;;4919530;29;20186;-71
2023/06/16 11:42:16;;;;;;;7.22;4.32;;;;;;;;;;4918611;29;20237;-71
2023/06/16 11:45:20;;;;;;;4.70;4.10;;;;;;;;;;4919420;29;20193;-71
2023/06/16 11:48:24;;;;;;;5.97;4.30;;;;;;;;;;4919064;29;20181;-71
2023/06/16 11:51:29;;;;;;;7.93;4.55;;;;;;;;;;4918081;29;20217;-70
2023/06/16 11:54:34;;;;;;;5.40;4.47;;;;;;;;;;4919144;29;20213;-71
2023/06/16 11:57:38;;;;;;;7.38;4.45;;;;;;;;;;4918903;29;20181;-71
2023/06/16 12:00:43;;;;;;;4.80;4.30;;;;;;;;;;4919056;29;20582;-71
2023/06/16 12:03:47;;;;;;;5.78;4.80;;;;;;;;;;4918305;29;20190;-71
2023/06/16 12:06:56;;;;;;;7.03;4.40;;;;;;;;;;4919056;29;20217;-71
2023/06/16 12:10:04;;;;;;;6.82;4.50;;;;;;;;;;4918952;29;20186;-71
2023/06/16 12:13:08;;;;;;;5.07;4.10;;;;;;;;;;4918672;29;20178;-71
2023/06/16 12:16:12;;;;;;;27.15;5.40;;;;;;;;;;4918565;29;20205;-71
2023/06/16 12:19:20;;;;;;;4.85;4.03;;;;;;;;;;4917733;29;20188;-71
2023/06/16 12:22:33;;;;;;;8.27;4.07;;;;;;;;;;4918345;29;20716;-71
2023/06/16 12:25:37;;;;;;;5.63;4.38;;;;;;;;;;4918717;29;20629;-71
2023/06/16 12:28:45;;;;;;;14.68;4.20;;;;;;;;;;4918497;29;20204;-71
2023/06/16 12:32:00;;;;;;;8.63;4.00;;;;;;;;;;4917361;29;20231;-71
2023/06/16 12:35:05;;;;;;;5.45;4.07;;;;;;;;;;4918319;29;20552;-71
2023/06/16 12:38:11;;;;;;;7.25;4.00;;;;;;;;;;4918232;29;20596;-71
2023/06/16 12:41:16;;;;;;;5.20;3.55;;;;;;;;;;4918258;29;20222;-72
2023/06/16 12:44:20;;;;;;;6.15;3.70;;;;;;;;;;4917323;29;20652;-71
2023/06/16 12:47:25;;;;;;;7.93;3.90;;;;;;;;;;4917426;29;20177;-71
2023/06/16 12:50:29;;;;;;;6.40;3.40;;;;;;;;;;4917895;29;20187;-71
2023/06/16 12:53:44;;;;;;;4.63;3.53;;;;;;;;;;4918216;29;20182;-71
2023/06/16 12:56:48;;;;;;;8.07;3.67;;;;;;;;;;4928232;29;20223;-71
2023/06/16 12:59:53;;;;;;;13.20;3.83;;;;;;;;;;4917097;29;20200;-71
2023/06/16 13:02:57;;;;;;;6.22;3.55;;;;;;;;;;4917033;29;20187;-71
2023/06/16 13:06:02;;;;;;;7.80;3.47;;;;;;;;;;4917675;29;20184;-72
2023/06/16 13:09:06;;;;;;;8.88;3.42;;;;;;;;;;4917080;29;20183;-72
2023/06/16 13:12:11;;;;;;;7.20;3.60;;;;;;;;;;4917436;29;20216;-72
2023/06/16 13:15:16;;;;;;;5.47;3.72;;;;;;;;;;4927558;29;20214;-72
2023/06/16 13:18:20;;;;;;;10.32;4.07;;;;;;;;;;4916741;29;20195;-72
2023/06/16 13:21:24;;;;;;;6.20;3.50;;;;;;;;;;4917478;29;20575;-73
2023/06/16 13:24:29;;;;;;;4.90;3.40;;;;;;;;;;4917705;29;20644;-72
2023/06/16 13:27:33;;;;;;;6.20;3.50;;;;;;;;;;4917319;29;20187;-72
2023/06/16 13:30:37;;;;;;;8.38;3.33;;;;;;;;;;4917765;29;20226;-72
2023/06/16 13:33:41;;;;;;;5.28;3.42;;;;;;;;;;4917252;29;20205;-72
2023/06/16 13:36:45;;;;;;;7.78;3.35;;;;;;;;;;4917112;29;20229;-72
2023/06/16 13:39:49;;;;;;;9.43;3.33;;;;;;;;;;4917497;29;20648;-72
2023/06/16 13:42:53;;;;;;;11.02;3.35;;;;;;;;;;4916541;29;20183;-72
2023/06/16 13:45:58;;;;;;;7.97;2.85;;;;;;;;;;4917422;29;20181;-72
2023/06/16 13:49:03;;;;;;;3.53;2.90;;;;;;;;;;4917325;29;20522;-72
2023/06/16 13:52:07;;;;;;;4.20;2.92;;;;;;;;;;4927734;29;20225;-72
2023/06/16 13:55:11;;;;;;;6.68;3.08;;;;;;;;;;4927271;29;20223;-71
2023/06/16 13:58:16;;;;;;;5.28;2.97;;;;;;;;;;4917101;29;20185;-71
2023/06/16 14:01:20;;;;;;;3.63;2.83;;;;;;;;;;4916991;29;20585;-71
2023/06/16 14:04:24;;;;;;;7.55;3.17;;;;;;;;;;4916844;29;20201;-72
2023/06/16 14:07:34;;;;;;;4.43;3.00;;;;;;;;;;4927226;29;20197;-71
2023/06/16 14:10:46;;;;;;;6.72;3.38;;;;;;;;;;4895585;29;20209;-71
2023/06/16 14:13:50;;;;;;;3.10;2.80;;;;;;;;;;4917216;29;20188;-71
2023/06/16 14:16:54;;;;;;;6.63;3.10;;;;;;;;;;4931059;29;20209;-71
2023/06/16 14:19:58;;;;;;;4.13;2.95;;;;;;;;;;4930886;29;20204;-71
2023/06/16 14:23:02;;;;;;;5.63;2.90;;;;;;;;;;4919796;29;20204;-70
2023/06/16 14:26:06;;;;;;;8.32;2.78;;;;;;;;;;4920844;29;20183;-71
2023/06/16 14:29:10;;;;;;;12.35;3.05;;;;;;;;;;4930500;29;20193;-71
2023/06/16 14:32:14;;;;;;;6.82;3.17;;;;;;;;;;4920307;29;20224;-71
2023/06/16 14:35:18;;;;;;;8.63;3.13;;;;;;;;;;4908715;29;20188;-71
2023/06/16 14:38:22;;;;;;;4.10;3.03;;;;;;;;;;4920655;29;20181;-71
2023/06/16 14:41:26;;;;;;;4.47;2.60;;;;;;;;;;4920201;29;20217;-71
2023/06/16 14:44:31;;;;;;;4.70;3.05;;;;;;;;;;4920619;29;20189;-71
2023/06/16 14:47:36;;;;;;;6.13;3.08;;;;;;;;;;4920532;29;20210;-72
2023/06/16 14:50:40;;;;;;;5.13;3.25;;;;;;;;;;4919424;29;20224;-72
2023/06/16 14:53:44;;;;;;;5.13;3.00;;;;;;;;;;4920141;29;20206;-72
2023/06/16 14:56:48;;;;;;;5.10;3.10;;;;;;;;;;4919133;29;20588;-71
2023/06/16 14:59:53;;;;;;;6.03;2.75;;;;;;;;;;4920208;29;20624;-71
2023/06/16 15:02:57;;;;;;;3.90;2.65;;;;;;;;;;4920179;29;20649;-71
2023/06/16 15:06:01;;;;;;;8.80;3.20;;;;;;;;;;4919858;29;20188;-71
2023/06/16 15:09:05;;;;;;;5.05;2.70;;;;;;;;;;4919885;29;20190;-71
2023/06/16 15:12:11;;;;;;;6.90;3.08;;;;;;;;;;4919982;29;20222;-71
2023/06/16 15:15:15;;;;;;;4.68;3.10;;;;;;;;;;4929970;29;20524;-71
2023/06/16 15:18:20;;;;;;;5.57;3.30;;;;;;;;;;4919662;29;20188;-71
2023/06/16 15:21:24;;;;;;;9.52;3.33;;;;;;;;;;4919693;29;20222;-72
2023/06/16 15:24:28;;;;;;;5.95;3.22;;;;;;;;;;4919603;29;20533;-71
2023/06/16 15:27:32;;;;;;;4.70;2.78;;;;;;;;;;4918960;29;20521;-71
2023/06/16 15:30:37;;;;;;;6.82;2.80;;;;;;;;;;4919288;29;20222;-70
2023/06/16 15:33:41;;;;;;;5.50;2.92;;;;;;;;;;4908101;29;20638;-70
2023/06/16 15:36:44;;;;;;;4.30;2.97;;;;;;;;;;4919242;29;20684;-70
2023/06/16 15:39:49;;;;;;;4.72;3.05;;;;;;;;;;4918789;29;20640;-70
2023/06/16 15:43:04;;;;;;;17.48;3.55;;;;;;;;;;4929593;29;20189;-70
2023/06/16 15:46:08;;;;;;;5.53;3.00;;;;;;;;;;4919140;29;20201;-71
2023/06/16 15:49:12;;;;;;;16.65;3.72;;;;;;;;;;4919081;29;20176;-72
2023/06/16 15:52:16;;;;;;;9.43;2.60;;;;;;;;;;4919028;29;20214;-72
2023/06/16 15:55:21;;;;;;;5.67;2.77;;;;;;;;;;4918531;29;20181;-71
2023/06/16 15:58:25;;;;;;;9.67;3.40;;;;;;;;;;4918247;29;20181;-71
2023/06/16 16:01:29;;;;;;;10.50;3.33;;;;;;;;;;4918850;29;20225;-72
2023/06/16 16:04:33;;;;;;;5.33;3.30;;;;;;;;;;4918175;29;20188;-71
2023/06/16 16:07:38;;;;;;;7.03;3.33;;;;;;;;;;4918951;29;20185;-71
2023/06/16 16:10:42;;;;;;;4.63;3.40;;;;;;;;;;4928947;29;20220;-71
2023/06/16 16:13:46;;;;;;;5.27;3.03;;;;;;;;;;4907091;29;20534;-70
2023/06/16 16:16:51;;;;;;;3.53;2.93;;;;;;;;;;4918784;29;20557;-72
2023/06/16 16:19:56;;;;;;;3.73;2.37;;;;;;;;;;4917774;29;20185;-72
2023/06/16 16:23:00;;;;;;;2.50;2.30;;;;;;;;;;4918357;29;20204;-72
2023/06/16 16:26:04;;;;;;;4.23;2.20;;;;;;;;;;4918401;29;20200;-73
2023/06/16 16:29:08;;;;;;;5.37;2.30;;;;;;;;;;4917504;29;20177;-72
2023/06/16 16:32:12;;;;;;;4.00;2.17;;;;;;;;;;4918146;29;20228;-72
2023/06/16 16:35:16;;;;;;;3.00;2.40;;;;;;;;;;4960206;23;20239;-73
2023/06/16 16:38:20;;;;;;;5.73;2.80;;;;;;;;;;4956085;28;20187;-73
2023/06/16 16:41:25;;;;;;;10.60;2.60;;;;;;;;;;4956142;29;20223;-72
2023/06/16 16:44:30;;;;;;;7.33;2.67;;;;;;;;;;4956138;29;20191;-72
2023/06/16 16:47:34;;;;;;;4.97;2.70;;;;;;;;;;4956342;29;20176;-72
2023/06/16 16:50:38;;;;;;;3.40;2.40;;;;;;;;;;4955938;29;20219;-73
2023/06/16 16:53:42;;;;;;;8.50;3.17;;;;;;;;;;4956460;29;20180;-73
2023/06/16 16:56:47;;;;;;;5.43;2.93;;;;;;;;;;4955319;29;20203;-73
2023/06/16 16:59:51;;;;;;;3.73;2.67;;;;;;;;;;4956378;29;20215;-72
2023/06/16 17:02:55;;;;;;;7.47;2.63;;;;;;;;;;4955438;29;20623;-72
2023/06/16 17:05:59;;;;;;;4.67;2.90;;;;;;;;;;4954996;29;20203;-73
2023/06/16 17:09:03;;;;;;;2.97;2.67;;;;;;;;;;4955160;29;20183;-72
2023/06/16 17:12:08;;;;;;;4.87;2.80;;;;;;;;;;4955797;29;20219;-72
2023/06/16 17:15:12;;;;;;;5.83;2.80;;;;;;;;;;4955199;29;20180;-73
2023/06/16 17:18:16;;;;;;;4.60;2.80;;;;;;;;;;4955661;29;20176;-72
2023/06/16 17:21:20;;;;;;;7.60;3.00;;;;;;;;;;4954841;29;20219;-72
2023/06/16 17:24:24;;;;;;;8.33;2.83;;;;;;;;;;4955254;29;20215;-72
2023/06/16 17:27:28;;;;;;;6.60;2.93;;;;;;;;;;4955782;29;20187;-72
2023/06/16 17:30:34;;;;;;;3.87;2.60;;;;;;;;;;4955434;29;20179;-72
2023/06/16 17:33:38;;;;;;;9.27;2.83;;;;;;;;;;4954877;29;20175;-72
2023/06/16 17:36:42;;;;;;;6.90;2.87;;;;;;;;;;4943773;29;20690;-71
2023/06/16 17:39:46;;;;;;;5.33;2.80;;;;;;;;;;4955617;29;20183;-72
2023/06/16 17:42:50;;;;;;;9.23;3.17;;;;;;;;;;4955484;29;20183;-72
2023/06/16 17:45:54;;;;;;;3.83;2.53;;;;;;;;;;4943784;29;20179;-72
2023/06/16 17:48:59;;;;;;;2.93;2.50;;;;;;;;;;4953955;28;20187;-72
2023/06/16 17:52:03;;;;;;;2.80;2.30;;;;;;;;;;4955203;29;20698;-71
2023/06/16 17:55:08;;;;;;;2.67;2.43;;;;;;;;;;4954487;29;20200;-72
2023/06/16 17:58:13;;;;;;;4.00;2.70;;;;;;;;;;4954299;29;20215;-72
2023/06/16 18:01:17;;;;;;;5.33;2.80;;;;;;;;;;4954286;29;20215;-72
2023/06/16 18:04:24;;;;;;;2.70;2.40;;;;;;;;;;4955503;29;20183;-72
2023/06/16 18:07:28;;;;;;;4.97;2.70;;;;;;;;;;4955308;29;20197;-72
2023/06/16 18:10:33;;;;;;;3.47;2.40;;;;;;;;;;4955464;29;20192;-72
2023/06/16 18:13:37;;;;;;;3.70;2.50;;;;;;;;;;4955288;29;20183;-71
2023/06/16 18:16:41;;;;;;;4.80;2.87;;;;;;;;;;4955131;29;20556;-72
2023/06/16 18:19:45;;;;;;;3.80;2.77;;;;;;;;;;4954900;29;20631;-72
2023/06/16 18:22:51;;;;;;;3.30;2.37;;;;;;;;;;4955540;29;20187;-72
2023/06/16 18:25:55;;;;;;;2.97;2.63;;;;;;;;;;4955175;29;20180;-72
2023/06/16 18:29:00;;;;;;;4.73;2.80;;;;;;;;;;4954840;29;20184;-72
2023/06/16 18:32:08;;;;;;;3.63;2.30;;;;;;;;;;4954066;29;20219;-72